createdAt,value
2017-08-08T00:02:20.666Z,15.60
2017-08-08T00:04:48.167Z,15.50
2017-08-08T00:07:15.691Z,15.30
2017-08-08T00:09:43.443Z,15.20
2017-08-08T00:12:10.964Z,15.20
2017-08-08T00:14:38.507Z,15.10
2017-08-08T00:17:06.209Z,15.10
2017-08-08T00:19:34.519Z,15.30
2017-08-08T00:22:02.116Z,15.20
2017-08-08T00:24:29.689Z,15.20
2017-08-08T00:26:57.241Z,15.20
2017-08-08T00:29:24.795Z,15.20
2017-08-08T00:31:52.342Z,15.20
2017-08-08T00:34:19.951Z,15.20
2017-08-08T00:36:48.235Z,15.10
2017-08-08T00:39:15.982Z,15.10
2017-08-08T00:41:43.518Z,15.20
2017-08-08T00:44:11.098Z,15.30
2017-08-08T00:46:38.649Z,15.30
2017-08-08T00:49:06.166Z,15.30
2017-08-08T00:51:33.712Z,15.40
2017-08-08T00:54:01.418Z,15.50
2017-08-08T00:56:28.971Z,15.50
2017-08-08T00:58:56.510Z,15.60
2017-08-08T01:01:24.103Z,15.60
2017-08-08T01:03:51.591Z,15.60
2017-08-08T01:06:19.887Z,15.80
2017-08-08T01:08:47.411Z,15.80
2017-08-08T01:11:15.738Z,15.70
2017-08-08T01:13:43.270Z,15.70
2017-08-08T01:16:11.606Z,15.80
2017-08-08T01:18:39.108Z,15.70
2017-08-08T01:21:07.446Z,15.90
2017-08-08T01:23:35.039Z,15.80
2017-08-08T01:26:02.599Z,15.90
2017-08-08T01:28:30.147Z,15.90
2017-08-08T01:30:57.740Z,15.80
2017-08-08T01:33:25.235Z,15.90
2017-08-08T01:35:52.800Z,15.90
2017-08-08T01:38:20.375Z,16.00
2017-08-08T01:40:47.932Z,15.90
2017-08-08T01:43:15.452Z,16.10
2017-08-08T01:45:43.050Z,16.00
2017-08-08T01:48:10.598Z,16.00
2017-08-08T01:50:38.143Z,15.90
2017-08-08T01:53:05.717Z,15.80
2017-08-08T01:55:33.245Z,15.70
2017-08-08T01:58:00.792Z,15.60
2017-08-08T02:00:28.399Z,15.40
2017-08-08T02:02:55.920Z,15.40
2017-08-08T02:05:23.441Z,15.50
2017-08-08T02:07:51.166Z,15.40
2017-08-08T02:10:18.704Z,15.30
2017-08-08T02:12:46.255Z,15.40
2017-08-08T02:15:13.826Z,15.40
2017-08-08T02:17:41.321Z,15.40
2017-08-08T02:20:08.842Z,15.40
2017-08-08T02:22:36.588Z,15.40
2017-08-08T02:25:04.132Z,15.40
2017-08-08T02:27:31.626Z,15.30
2017-08-08T02:29:59.253Z,15.20
2017-08-08T02:32:26.791Z,15.10
2017-08-08T02:34:54.347Z,15.00
2017-08-08T02:37:21.923Z,14.90
2017-08-08T02:39:49.456Z,14.90
2017-08-08T02:42:16.941Z,15.00
2017-08-08T02:44:45.371Z,14.80
2017-08-08T02:47:12.903Z,14.80
2017-08-08T02:49:40.463Z,14.90
2017-08-08T02:52:08.009Z,14.90
2017-08-08T02:54:36.238Z,15.00
2017-08-08T02:57:03.796Z,14.90
2017-08-08T02:59:31.370Z,15.00
2017-08-08T03:01:58.921Z,14.90
2017-08-08T03:04:26.450Z,14.80
2017-08-08T03:06:53.979Z,14.60
2017-08-08T03:09:22.339Z,14.40
2017-08-08T03:11:49.843Z,14.30
2017-08-08T03:14:18.483Z,14.30
2017-08-08T03:16:45.988Z,14.20
2017-08-08T03:19:13.536Z,14.20
2017-08-08T03:21:41.123Z,14.10
2017-08-08T03:24:08.633Z,14.10
2017-08-08T03:26:36.919Z,13.90
2017-08-08T03:29:04.431Z,13.90
2017-08-08T03:31:31.958Z,13.90
2017-08-08T03:33:59.462Z,14.00
2017-08-08T03:36:27.057Z,13.90
2017-08-08T03:38:54.596Z,13.90
2017-08-08T03:41:22.107Z,14.00
2017-08-08T03:43:49.698Z,13.90
2017-08-08T03:46:17.253Z,13.90
2017-08-08T03:48:44.771Z,13.90
2017-08-08T03:51:12.348Z,13.80
2017-08-08T03:53:39.873Z,13.80
2017-08-08T03:56:07.386Z,13.90
2017-08-08T03:58:34.983Z,14.30
2017-08-08T04:01:02.520Z,15.00
2017-08-08T04:03:30.073Z,15.50
2017-08-08T04:05:57.665Z,16.00
2017-08-08T04:08:25.197Z,16.60
2017-08-08T04:10:52.728Z,17.40
2017-08-08T04:13:20.345Z,17.60
2017-08-08T04:15:47.887Z,17.90
2017-08-08T04:18:15.476Z,18.50
2017-08-08T04:20:43.824Z,19.40
2017-08-08T04:23:11.358Z,19.40
2017-08-08T04:25:38.922Z,19.90
2017-08-08T04:28:06.547Z,20.50
2017-08-08T04:30:34.112Z,20.90
2017-08-08T04:33:01.616Z,21.30
2017-08-08T04:35:29.218Z,22.10
2017-08-08T04:37:57.484Z,23.00
2017-08-08T04:40:25.004Z,22.90
2017-08-08T04:42:52.729Z,23.50
2017-08-08T04:45:20.266Z,24.20
2017-08-08T04:47:48.558Z,25.30
2017-08-08T04:50:16.173Z,25.20
2017-08-08T04:52:43.688Z,25.40
2017-08-08T04:55:11.245Z,25.80
2017-08-08T04:57:38.889Z,26.40
2017-08-08T05:00:06.443Z,26.30
2017-08-08T05:02:33.972Z,26.80
2017-08-08T05:05:01.572Z,26.60
2017-08-08T05:07:29.159Z,27.00
2017-08-08T05:09:56.692Z,27.70
2017-08-08T05:12:25.167Z,28.30
2017-08-08T05:14:52.715Z,28.30
2017-08-08T05:17:20.485Z,28.80
2017-08-08T05:19:48.052Z,29.10
2017-08-08T05:22:16.382Z,28.20
2017-08-08T05:24:43.903Z,28.20
2017-08-08T05:27:11.611Z,28.40
2017-08-08T05:29:39.181Z,28.10
2017-08-08T05:32:06.726Z,27.50
2017-08-08T05:34:34.305Z,27.30
2017-08-08T05:37:01.849Z,28.10
2017-08-08T05:39:29.350Z,27.40
2017-08-08T05:41:56.969Z,28.30
2017-08-08T05:44:24.542Z,28.00
2017-08-08T05:46:52.144Z,27.20
2017-08-08T05:49:19.846Z,26.60
2017-08-08T05:51:47.389Z,27.30
2017-08-08T05:54:14.932Z,27.40
2017-08-08T05:56:42.460Z,28.10
2017-08-08T05:59:10.029Z,28.70
2017-08-08T06:01:37.521Z,28.50
2017-08-08T06:04:05.213Z,29.10
2017-08-08T06:06:32.781Z,29.50
2017-08-08T06:09:00.277Z,29.90
2017-08-08T06:11:27.879Z,30.50
2017-08-08T06:13:55.391Z,31.40
2017-08-08T06:16:22.950Z,31.80
2017-08-08T06:18:51.481Z,32.10
2017-08-08T06:21:19.057Z,32.00
2017-08-08T06:23:46.590Z,31.90
2017-08-08T06:26:14.135Z,30.20
2017-08-08T06:28:41.685Z,29.20
2017-08-08T06:31:09.242Z,30.60
2017-08-08T06:33:37.548Z,29.50
2017-08-08T06:36:05.084Z,29.40
2017-08-08T06:38:32.696Z,30.00
2017-08-08T06:41:00.334Z,30.70
2017-08-08T06:43:27.907Z,29.00
2017-08-08T06:45:55.462Z,29.40
2017-08-08T06:48:23.035Z,29.70
2017-08-08T06:50:50.569Z,30.10
2017-08-08T06:53:18.073Z,30.70
2017-08-08T06:55:45.672Z,31.10
2017-08-08T06:58:13.159Z,31.70
2017-08-08T07:00:40.710Z,32.40
2017-08-08T07:03:08.274Z,32.00
2017-08-08T07:05:35.814Z,31.40
2017-08-08T07:08:03.380Z,30.80
2017-08-08T07:10:30.936Z,31.10
2017-08-08T07:12:58.530Z,31.70
2017-08-08T07:15:26.060Z,32.30
2017-08-08T07:17:53.611Z,32.90
2017-08-08T07:20:21.171Z,32.70
2017-08-08T07:22:48.692Z,32.10
2017-08-08T07:25:16.246Z,32.90
2017-08-08T07:27:43.737Z,33.20
2017-08-08T07:30:11.261Z,32.10
2017-08-08T07:32:38.845Z,31.80
2017-08-08T07:35:06.398Z,31.40
2017-08-08T07:37:33.889Z,31.10
2017-08-08T07:40:01.496Z,32.10
2017-08-08T07:42:29.025Z,32.20
2017-08-08T07:44:56.529Z,31.70
2017-08-08T07:47:24.088Z,32.80
2017-08-08T07:49:51.623Z,32.70
2017-08-08T07:52:19.118Z,31.60
2017-08-08T07:54:46.715Z,32.40
2017-08-08T07:57:14.270Z,32.50
2017-08-08T07:59:41.808Z,33.50
2017-08-08T08:02:09.397Z,34.00
2017-08-08T08:04:36.947Z,35.00
2017-08-08T08:07:04.402Z,35.10
2017-08-08T08:09:31.956Z,34.80
2017-08-08T08:11:59.495Z,34.20
2017-08-08T08:14:27.036Z,34.00
2017-08-08T08:16:55.375Z,31.20
2017-08-08T08:19:23.141Z,31.20
2017-08-08T08:21:50.686Z,30.60
2017-08-08T08:24:18.263Z,31.30
2017-08-08T08:26:45.718Z,30.80
2017-08-08T08:29:13.272Z,31.40
2017-08-08T08:31:40.809Z,31.30
2017-08-08T08:34:08.270Z,29.90
2017-08-08T08:36:35.833Z,30.70
2017-08-08T08:39:03.364Z,31.50
2017-08-08T08:41:30.948Z,31.80
2017-08-08T08:43:58.479Z,32.20
2017-08-08T08:46:26.238Z,32.60
2017-08-08T08:48:53.780Z,32.40
2017-08-08T08:51:21.332Z,33.30
2017-08-08T08:53:48.844Z,32.30
2017-08-08T08:56:16.420Z,33.00
2017-08-08T08:58:43.935Z,33.60
2017-08-08T09:01:11.647Z,32.40
2017-08-08T09:03:39.144Z,32.10
2017-08-08T09:06:06.688Z,32.60
2017-08-08T09:08:34.290Z,33.40
2017-08-08T09:11:01.802Z,33.60
2017-08-08T09:13:29.403Z,32.20
2017-08-08T09:15:57.903Z,32.80
2017-08-08T09:18:25.445Z,32.80
2017-08-08T09:20:52.964Z,33.80
2017-08-08T09:23:20.540Z,34.50
2017-08-08T09:25:48.021Z,35.50
2017-08-08T09:28:15.534Z,36.30
2017-08-08T09:30:43.250Z,36.00
2017-08-08T09:33:10.767Z,36.50
2017-08-08T09:35:38.275Z,35.60
2017-08-08T09:38:05.849Z,35.20
2017-08-08T09:40:33.388Z,34.50
2017-08-08T09:43:00.961Z,33.90
2017-08-08T09:45:28.571Z,33.70
2017-08-08T09:47:56.421Z,33.70
2017-08-08T09:50:23.957Z,33.00
2017-08-08T09:52:51.518Z,32.20
2017-08-08T09:55:19.070Z,31.80
2017-08-08T09:57:46.614Z,31.90
2017-08-08T10:00:14.247Z,31.80
2017-08-08T10:02:41.791Z,32.10
2017-08-08T10:05:09.316Z,31.40
2017-08-08T10:07:36.902Z,29.60
2017-08-08T10:10:04.453Z,29.10
2017-08-08T10:12:32.008Z,29.40
2017-08-08T10:14:59.790Z,30.20
2017-08-08T10:17:27.320Z,31.10
2017-08-08T10:19:54.870Z,32.30
2017-08-08T10:22:22.434Z,31.50
2017-08-08T10:24:50.013Z,31.00
2017-08-08T10:27:17.468Z,31.30
2017-08-08T10:29:46.127Z,32.20
2017-08-08T10:32:14.415Z,32.20
2017-08-08T10:34:42.701Z,32.10
2017-08-08T10:37:10.293Z,32.70
2017-08-08T10:39:37.842Z,32.60
2017-08-08T10:42:05.352Z,30.70
2017-08-08T10:44:32.962Z,28.70
2017-08-08T10:47:00.537Z,27.80
2017-08-08T10:49:28.061Z,27.40
2017-08-08T10:51:55.619Z,26.90
2017-08-08T10:54:23.162Z,26.80
2017-08-08T10:56:50.730Z,26.40
2017-08-08T10:59:18.311Z,26.50
2017-08-08T11:01:45.838Z,27.90
2017-08-08T11:04:14.145Z,28.20
2017-08-08T11:06:41.866Z,28.20
2017-08-08T11:09:09.427Z,27.70
2017-08-08T11:11:37.706Z,26.10
2017-08-08T11:14:05.325Z,26.00
2017-08-08T11:16:32.848Z,26.30
2017-08-08T11:19:00.394Z,27.20
2017-08-08T11:21:27.957Z,28.90
2017-08-08T11:23:56.257Z,28.40
2017-08-08T11:26:23.804Z,28.40
2017-08-08T11:28:51.583Z,27.80
2017-08-08T11:31:19.783Z,27.00
2017-08-08T11:33:47.425Z,26.50
2017-08-08T11:36:15.113Z,26.60
2017-08-08T11:38:42.663Z,27.20
2017-08-08T11:41:10.210Z,28.90
2017-08-08T11:43:38.073Z,29.80
2017-08-08T11:46:05.980Z,30.00
2017-08-08T11:48:33.966Z,29.70
2017-08-08T11:51:02.463Z,27.80
2017-08-08T11:53:30.013Z,27.80
2017-08-08T11:55:57.587Z,27.40
2017-08-08T11:58:25.176Z,27.00
2017-08-08T12:00:52.723Z,26.90
2017-08-08T12:03:20.797Z,25.80
2017-08-08T12:05:48.697Z,25.60
2017-08-08T12:08:16.234Z,25.10
2017-08-08T12:10:43.772Z,24.80
2017-08-08T12:13:11.355Z,25.00
2017-08-08T12:15:38.894Z,25.60
2017-08-08T12:18:06.396Z,25.40
2017-08-08T12:20:34.012Z,26.10
2017-08-08T12:23:01.507Z,26.50
2017-08-08T12:25:29.069Z,25.90
2017-08-08T12:27:56.648Z,25.80
2017-08-08T12:30:24.245Z,25.60
2017-08-08T12:32:51.806Z,25.60
2017-08-08T12:35:19.569Z,26.10
2017-08-08T12:37:47.116Z,26.50
2017-08-08T12:40:15.430Z,25.90
2017-08-08T12:42:43.010Z,25.90
2017-08-08T12:45:10.527Z,26.00
2017-08-08T12:47:38.083Z,25.80
2017-08-08T12:50:05.657Z,25.10
2017-08-08T12:52:33.185Z,25.00
2017-08-08T12:55:00.717Z,25.10
2017-08-08T12:57:28.689Z,25.70
2017-08-08T12:59:56.205Z,26.40
2017-08-08T13:02:23.770Z,26.50
2017-08-08T13:04:51.430Z,26.50
2017-08-08T13:07:18.963Z,25.70
2017-08-08T13:09:46.522Z,25.50
2017-08-08T13:12:14.146Z,25.30
2017-08-08T13:14:41.696Z,25.20
2017-08-08T13:17:09.221Z,25.40
2017-08-08T13:19:36.870Z,25.60
2017-08-08T13:22:04.542Z,25.80
2017-08-08T13:24:32.113Z,26.00
2017-08-08T13:26:59.731Z,26.50
2017-08-08T13:29:27.273Z,26.00
2017-08-08T13:31:54.867Z,25.90
2017-08-08T13:34:23.290Z,26.20
2017-08-08T13:36:50.834Z,26.20
2017-08-08T13:39:22.573Z,26.50
2017-08-08T13:41:50.287Z,26.50
2017-08-08T13:44:17.823Z,26.50
2017-08-08T13:46:45.413Z,26.60
2017-08-08T13:49:13.002Z,26.80
2017-08-08T13:51:40.575Z,27.10
2017-08-08T13:54:08.125Z,27.10
2017-08-08T13:56:36.474Z,26.80
2017-08-08T13:59:04.017Z,26.80
2017-08-08T14:01:31.566Z,26.80
2017-08-08T14:03:59.206Z,27.10
2017-08-08T14:06:26.752Z,27.20
2017-08-08T14:08:54.310Z,27.10
2017-08-08T14:11:21.876Z,26.90
2017-08-08T14:13:49.442Z,26.90
2017-08-08T14:16:17.033Z,26.80
2017-08-08T14:18:44.606Z,26.90
2017-08-08T14:21:12.145Z,27.10
2017-08-08T14:23:39.702Z,27.20
2017-08-08T14:26:07.412Z,27.10
2017-08-08T14:28:34.998Z,26.90
2017-08-08T14:31:02.578Z,26.80
2017-08-08T14:33:30.125Z,26.70
2017-08-08T14:35:57.719Z,26.70
2017-08-08T14:38:25.262Z,26.50
2017-08-08T14:40:52.877Z,26.30
2017-08-08T14:43:21.206Z,26.70
2017-08-08T14:45:48.773Z,26.70
2017-08-08T14:48:16.516Z,26.70
2017-08-08T14:50:44.099Z,26.80
2017-08-08T14:53:11.671Z,26.80
2017-08-08T14:55:39.204Z,26.80
2017-08-08T14:58:06.730Z,26.80
2017-08-08T15:00:34.277Z,26.70
2017-08-08T15:03:02.055Z,25.80
2017-08-08T15:05:29.580Z,25.70
2017-08-08T15:07:57.150Z,25.30
2017-08-08T15:10:24.741Z,25.20
2017-08-08T15:12:52.287Z,25.20
2017-08-08T15:15:19.855Z,25.40
2017-08-08T15:17:47.613Z,25.50
2017-08-08T15:20:15.157Z,25.50
2017-08-08T15:22:42.675Z,25.60
2017-08-08T15:25:10.429Z,25.50
2017-08-08T15:27:38.003Z,25.60
2017-08-08T15:30:05.509Z,25.50
2017-08-08T15:32:33.106Z,25.60
2017-08-08T15:35:00.619Z,25.80
2017-08-08T15:37:28.978Z,26.20
2017-08-08T15:39:56.543Z,26.10
2017-08-08T15:42:24.082Z,26.30
2017-08-08T15:44:51.738Z,26.30
2017-08-08T15:47:19.288Z,26.40
2017-08-08T15:49:46.844Z,26.50
2017-08-08T15:52:14.431Z,26.40
2017-08-08T15:54:42.082Z,26.30
2017-08-08T15:57:09.629Z,26.10
2017-08-08T15:59:37.291Z,26.10
2017-08-08T16:02:05.023Z,26.00
2017-08-08T16:04:32.581Z,26.00
2017-08-08T16:07:00.899Z,26.10
2017-08-08T16:09:28.670Z,26.10
2017-08-08T16:11:56.272Z,25.80
2017-08-08T16:14:23.918Z,25.70
2017-08-08T16:16:51.480Z,25.60
2017-08-08T16:19:19.187Z,25.50
2017-08-08T16:21:46.790Z,25.50
2017-08-08T16:24:15.179Z,25.60
2017-08-08T16:26:42.701Z,25.70
2017-08-08T16:29:10.280Z,25.70
2017-08-08T16:31:37.917Z,25.70
2017-08-08T16:34:05.498Z,25.40
2017-08-08T16:36:33.122Z,25.30
2017-08-08T16:39:02.022Z,25.30
2017-08-08T16:41:29.592Z,25.20
2017-08-08T16:43:57.114Z,25.30
2017-08-08T16:46:24.921Z,25.10
2017-08-08T16:48:52.559Z,25.00
2017-08-08T16:51:20.143Z,25.00
2017-08-08T16:53:48.087Z,24.90
2017-08-08T16:56:15.658Z,24.90
2017-08-08T16:58:43.286Z,24.90
2017-08-08T17:01:11.276Z,24.80
2017-08-08T17:03:39.703Z,24.70
2017-08-08T17:06:07.703Z,24.80
2017-08-08T17:08:35.620Z,24.70
2017-08-08T17:11:03.235Z,24.60
2017-08-08T17:13:30.989Z,24.40
2017-08-08T17:15:58.877Z,24.30
2017-08-08T17:18:26.723Z,24.30
2017-08-08T17:20:55.149Z,24.10
2017-08-08T17:23:23.013Z,24.10
2017-08-08T17:25:50.980Z,24.00
2017-08-08T17:28:18.767Z,24.00
2017-08-08T17:30:46.665Z,24.00
2017-08-08T17:33:14.349Z,24.00
2017-08-08T17:35:41.993Z,23.90
2017-08-08T17:38:09.848Z,23.80
2017-08-08T17:40:38.793Z,23.80
2017-08-08T17:43:06.501Z,23.80
2017-08-08T17:45:34.459Z,23.70
2017-08-08T17:48:02.177Z,23.60
2017-08-08T17:50:29.757Z,23.60
2017-08-08T17:52:57.387Z,23.50
2017-08-08T17:55:25.778Z,23.40
2017-08-08T17:57:54.076Z,23.30
2017-08-08T18:00:21.666Z,23.20
2017-08-08T18:02:49.371Z,23.10
2017-08-08T18:05:16.927Z,23.00
2017-08-08T18:07:44.524Z,22.90
2017-08-08T18:10:12.072Z,22.80
2017-08-08T18:12:39.649Z,22.70
2017-08-08T18:15:07.652Z,22.50
2017-08-08T18:17:35.265Z,22.50
2017-08-08T18:20:02.794Z,22.30
2017-08-08T18:22:30.418Z,22.20
2017-08-08T18:24:58.030Z,22.20
2017-08-08T18:27:25.605Z,22.10
2017-08-08T18:29:53.244Z,22.00
2017-08-08T18:32:21.520Z,22.00
2017-08-08T18:34:49.841Z,21.90
2017-08-08T18:37:17.474Z,21.80
2017-08-08T18:39:45.081Z,21.80
2017-08-08T18:42:12.671Z,21.60
2017-08-08T18:44:40.308Z,21.50
2017-08-08T18:47:07.904Z,21.30
2017-08-08T18:49:35.462Z,21.20
2017-08-08T18:52:03.127Z,21.00
2017-08-08T18:54:30.740Z,21.00
2017-08-08T18:56:58.381Z,20.90
2017-08-08T18:59:26.237Z,20.90
2017-08-08T19:01:53.813Z,20.70
2017-08-08T19:04:21.407Z,20.70
2017-08-08T19:06:49.105Z,20.50
2017-08-08T19:09:16.698Z,20.50
2017-08-08T19:11:44.324Z,20.40
2017-08-08T19:14:12.017Z,20.40
2017-08-08T19:16:39.854Z,20.20
2017-08-08T19:19:07.456Z,20.20
2017-08-08T19:21:37.165Z,20.10
2017-08-08T19:24:04.828Z,20.00
2017-08-08T19:26:33.435Z,20.00
2017-08-08T19:29:02.943Z,19.80
2017-08-08T19:31:30.560Z,19.70
2017-08-08T19:33:59.768Z,19.70
2017-08-08T19:36:27.419Z,19.80
2017-08-08T19:38:55.696Z,19.90
2017-08-08T19:41:23.279Z,20.10
2017-08-08T19:43:51.363Z,20.20
2017-08-08T19:46:20.257Z,20.30
2017-08-08T19:48:48.802Z,20.30
2017-08-08T19:51:17.389Z,20.40
2017-08-08T19:53:45.799Z,20.30
2017-08-08T19:56:14.197Z,20.30
2017-08-08T19:58:41.872Z,20.30
2017-08-08T20:01:10.078Z,20.20
2017-08-08T20:03:37.659Z,20.30
2017-08-08T20:06:05.272Z,20.20
2017-08-08T20:08:32.847Z,20.20
2017-08-08T20:11:00.373Z,20.20
2017-08-08T20:13:28.187Z,20.20
2017-08-08T20:15:55.716Z,20.20
2017-08-08T20:18:23.542Z,20.20
2017-08-08T20:20:51.173Z,20.20
2017-08-08T20:23:18.759Z,20.20
2017-08-08T20:25:46.318Z,20.20
2017-08-08T20:28:13.962Z,20.20
2017-08-08T20:30:42.190Z,20.30
2017-08-08T20:33:09.807Z,20.30
2017-08-08T20:35:37.435Z,20.30
2017-08-08T20:38:05.716Z,20.30
2017-08-08T20:40:33.310Z,20.30
2017-08-08T20:43:00.951Z,20.30
2017-08-08T20:45:28.547Z,20.30
2017-08-08T20:47:56.207Z,20.20
2017-08-08T20:50:23.979Z,20.30
2017-08-08T20:52:51.538Z,20.30
2017-08-08T20:55:19.268Z,20.30
2017-08-08T20:57:46.896Z,20.30
2017-08-08T21:00:14.440Z,20.20
2017-08-08T21:02:42.010Z,20.10
2017-08-08T21:05:09.943Z,20.00
2017-08-08T21:07:37.729Z,20.00
2017-08-08T21:10:05.308Z,20.00
2017-08-08T21:12:32.855Z,20.10
2017-08-08T21:15:00.484Z,20.10
2017-08-08T21:17:28.023Z,20.10
2017-08-08T21:19:55.659Z,20.10
2017-08-08T21:22:23.986Z,20.00
2017-08-08T21:24:51.545Z,20.00
2017-08-08T21:27:20.207Z,19.90
2017-08-08T21:29:47.918Z,19.80
2017-08-08T21:32:15.542Z,19.80
2017-08-08T21:34:43.132Z,19.80
2017-08-08T21:37:10.767Z,19.80
2017-08-08T21:39:38.372Z,19.80
2017-08-08T21:42:06.188Z,19.90
2017-08-08T21:44:33.732Z,19.90
2017-08-08T21:47:01.352Z,19.90
2017-08-08T21:49:29.054Z,19.80
2017-08-08T21:51:56.650Z,19.80
2017-08-08T21:54:24.429Z,19.90
2017-08-08T21:56:52.029Z,19.90
2017-08-08T21:59:20.432Z,19.90
2017-08-08T22:01:48.020Z,19.90
2017-08-08T22:04:15.616Z,20.00
2017-08-08T22:06:43.158Z,20.00
2017-08-08T22:09:10.762Z,20.00
2017-08-08T22:11:38.509Z,20.10
2017-08-08T22:14:06.071Z,20.00
2017-08-08T22:16:33.635Z,20.00
2017-08-08T22:19:02.011Z,20.00
2017-08-08T22:21:30.305Z,19.90
2017-08-08T22:23:57.871Z,19.90
2017-08-08T22:26:25.478Z,20.00
2017-08-08T22:28:53.023Z,20.00
2017-08-08T22:31:20.582Z,20.00
2017-08-08T22:33:48.180Z,20.00
2017-08-08T22:36:15.730Z,20.00
2017-08-08T22:38:43.316Z,20.10
2017-08-08T22:41:10.921Z,20.10
2017-08-08T22:43:38.503Z,20.10
2017-08-08T22:46:06.062Z,20.10
2017-08-08T22:48:33.792Z,20.20
2017-08-08T22:51:01.398Z,20.20
2017-08-08T22:53:28.909Z,20.20
2017-08-08T22:55:56.502Z,20.20
2017-08-08T22:58:24.092Z,20.20
2017-08-08T23:00:52.448Z,20.20
2017-08-08T23:03:20.028Z,20.10
2017-08-08T23:05:47.590Z,20.10
2017-08-08T23:08:15.145Z,20.10
2017-08-08T23:10:42.966Z,20.20
2017-08-08T23:13:10.519Z,20.20
2017-08-08T23:15:38.102Z,20.20
2017-08-08T23:18:06.697Z,20.20
2017-08-08T23:20:34.202Z,20.30
2017-08-08T23:23:01.775Z,20.30
2017-08-08T23:25:29.381Z,20.30
2017-08-08T23:27:56.943Z,20.30
2017-08-08T23:30:24.477Z,20.30
2017-08-08T23:32:52.022Z,20.30
2017-08-08T23:35:19.618Z,20.20
2017-08-08T23:37:47.158Z,20.30
2017-08-08T23:40:14.794Z,20.40
2017-08-08T23:42:42.340Z,20.40
2017-08-08T23:45:09.854Z,20.40
2017-08-08T23:47:37.452Z,20.40
2017-08-08T23:50:05.018Z,20.40
2017-08-08T23:52:32.530Z,20.40
2017-08-08T23:55:00.294Z,20.30
2017-08-08T23:57:27.858Z,20.30
2017-08-08T23:59:55.427Z,20.20
